createdAt,value
2018-09-23T00:00:45.552Z,1020.97
2018-09-23T00:01:45.588Z,1020.95
2018-09-23T00:02:45.780Z,1020.97
2018-09-23T00:03:45.503Z,1020.98
2018-09-23T00:04:45.462Z,1020.9
2018-09-23T00:05:45.516Z,1020.86
2018-09-23T00:06:45.521Z,1020.85
2018-09-23T00:07:45.536Z,1020.87
2018-09-23T00:08:45.672Z,1020.98
2018-09-23T00:09:45.553Z,1020.94
2018-09-23T00:10:45.469Z,1020.99
2018-09-23T00:11:45.711Z,1020.97
2018-09-23T00:12:45.470Z,1021.01
2018-09-23T00:13:45.612Z,1020.95
2018-09-23T00:14:45.618Z,1021.02
2018-09-23T00:15:45.490Z,1021.01
2018-09-23T00:16:45.473Z,1021.05
2018-09-23T00:17:45.473Z,1020.94
2018-09-23T00:18:45.574Z,1020.96
2018-09-23T00:19:45.719Z,1020.95
2018-09-23T00:20:45.445Z,1020.94
2018-09-23T00:21:45.697Z,1020.94
2018-09-23T00:22:45.719Z,1020.93
2018-09-23T00:23:45.445Z,1020.93
2018-09-23T00:24:45.454Z,1020.93
2018-09-23T00:25:45.539Z,1020.94
2018-09-23T00:26:45.475Z,1020.93
2018-09-23T00:27:45.549Z,1020.94
2018-09-23T00:28:45.530Z,1020.93
2018-09-23T00:29:45.551Z,1020.89
2018-09-23T00:30:45.456Z,1020.9
2018-09-23T00:31:45.499Z,1020.86
2018-09-23T00:32:45.490Z,1020.84
2018-09-23T00:33:45.424Z,1020.8
2018-09-23T00:34:45.444Z,1020.76
2018-09-23T00:35:45.451Z,1020.7
2018-09-23T00:36:45.435Z,1020.69
2018-09-23T00:37:45.574Z,1020.71
2018-09-23T00:38:45.423Z,1020.68
2018-09-23T00:39:45.522Z,1020.67
2018-09-23T00:40:45.415Z,1020.65
2018-09-23T00:41:45.417Z,1020.63
2018-09-23T00:42:45.423Z,1020.6
2018-09-23T00:43:45.447Z,1020.59
2018-09-23T00:44:45.415Z,1020.6
2018-09-23T00:45:45.464Z,1020.56
2018-09-23T00:46:45.401Z,1020.54
2018-09-23T00:47:45.408Z,1020.51
2018-09-23T00:48:45.398Z,1020.49
2018-09-23T00:49:45.406Z,1020.47
2018-09-23T00:50:45.438Z,1020.43
2018-09-23T00:51:45.402Z,1020.43
2018-09-23T00:52:45.430Z,1020.47
2018-09-23T00:53:45.536Z,1020.45
2018-09-23T00:54:45.514Z,1020.42
2018-09-23T00:55:45.819Z,1020.38
2018-09-23T00:56:45.451Z,1020.38
2018-09-23T00:57:45.480Z,1020.39
2018-09-23T00:58:45.411Z,1020.3
2018-09-23T00:59:45.387Z,1020.3
2018-09-23T01:00:45.581Z,1020.21
2018-09-23T01:01:45.409Z,1020.15
2018-09-23T01:02:45.397Z,1020.16
2018-09-23T01:03:45.473Z,1020.18
2018-09-23T01:04:45.413Z,1020.21
2018-09-23T01:05:45.621Z,1020.17
2018-09-23T01:06:45.396Z,1020.09
2018-09-23T01:07:45.499Z,1020
2018-09-23T01:08:45.421Z,1020.06
2018-09-23T01:09:45.566Z,1020.09
2018-09-23T01:10:45.959Z,1020.05
2018-09-23T01:11:45.600Z,1020.06
2018-09-23T01:12:45.466Z,1020.05
2018-09-23T01:13:45.414Z,1020.09
2018-09-23T01:14:45.515Z,1020.1
2018-09-23T01:15:45.396Z,1020.11
2018-09-23T01:16:45.519Z,1020.11
2018-09-23T01:17:45.443Z,1020.1
2018-09-23T01:18:45.359Z,1020.1
2018-09-23T01:19:45.361Z,1020.13
2018-09-23T01:20:45.465Z,1020.12
2018-09-23T01:21:45.414Z,1020.06
2018-09-23T01:22:45.434Z,1020.02
2018-09-23T01:23:45.384Z,1020.01
2018-09-23T01:24:45.366Z,1019.94
2018-09-23T01:25:45.370Z,1019.89
2018-09-23T01:26:45.381Z,1019.84
2018-09-23T01:27:45.382Z,1019.82
2018-09-23T01:28:45.414Z,1019.79
2018-09-23T01:29:45.379Z,1019.83
2018-09-23T01:30:45.460Z,1019.77
2018-09-23T01:31:45.367Z,1019.8
2018-09-23T01:32:45.401Z,1019.81
2018-09-23T01:33:45.562Z,1019.77
2018-09-23T01:34:45.364Z,1019.79
2018-09-23T01:35:45.438Z,1019.78
2018-09-23T01:36:45.417Z,1019.76
2018-09-23T01:37:45.359Z,1019.81
2018-09-23T01:38:45.536Z,1019.82
2018-09-23T01:39:45.397Z,1019.76
2018-09-23T01:40:45.406Z,1019.72
2018-09-23T01:41:46.049Z,1019.8
2018-09-23T01:42:45.439Z,1019.84
2018-09-23T01:43:45.376Z,1019.79
2018-09-23T01:44:45.463Z,1019.8
2018-09-23T01:45:45.333Z,1019.85
2018-09-23T01:46:45.348Z,1019.77
2018-09-23T01:47:45.334Z,1019.73
2018-09-23T01:48:46.208Z,1019.72
2018-09-23T01:49:45.385Z,1019.67
2018-09-23T01:50:45.397Z,1019.66
2018-09-23T01:51:45.332Z,1019.66
2018-09-23T01:52:45.441Z,1019.67
2018-09-23T01:53:45.324Z,1019.56
2018-09-23T01:54:45.324Z,1019.51
2018-09-23T01:55:45.484Z,1019.43
2018-09-23T01:56:45.339Z,1019.43
2018-09-23T01:57:45.382Z,1019.37
2018-09-23T01:58:45.325Z,1019.37
2018-09-23T01:59:45.567Z,1019.38
2018-09-23T02:00:45.316Z,1019.29
2018-09-23T02:01:45.515Z,1019.26
2018-09-23T02:02:45.311Z,1019.21
2018-09-23T02:03:45.352Z,1019.21
2018-09-23T02:04:45.301Z,1019.21
2018-09-23T02:05:45.298Z,1019.15
2018-09-23T02:06:45.310Z,1019.1
2018-09-23T02:07:45.392Z,1019.14
2018-09-23T02:08:45.321Z,1019.15
2018-09-23T02:09:45.284Z,1019.18
2018-09-23T02:10:45.315Z,1019.13
2018-09-23T02:11:45.325Z,1019.13
2018-09-23T02:12:45.332Z,1019.08
2018-09-23T02:13:45.328Z,1019.1
2018-09-23T02:14:45.357Z,1019.07
2018-09-23T02:15:45.405Z,1019.1
2018-09-23T02:16:45.350Z,1019.06
2018-09-23T02:17:45.360Z,1019.06
2018-09-23T02:18:45.775Z,1019.07
2018-09-23T02:19:45.293Z,1019.07
2018-09-23T02:20:45.356Z,1018.99
2018-09-23T02:21:45.310Z,1019.02
2018-09-23T02:22:45.452Z,1018.99
2018-09-23T02:23:45.550Z,1018.96
2018-09-23T02:24:45.295Z,1018.95
2018-09-23T02:25:45.319Z,1018.9
2018-09-23T02:26:45.288Z,1018.88
2018-09-23T02:27:45.833Z,1018.86
2018-09-23T02:28:46.043Z,1018.89
2018-09-23T02:29:45.297Z,1018.86
2018-09-23T02:30:45.272Z,1018.83
2018-09-23T02:31:45.289Z,1018.82
2018-09-23T02:32:45.323Z,1018.75
2018-09-23T02:33:45.382Z,1018.74
2018-09-23T02:34:45.441Z,1018.74
2018-09-23T02:35:45.267Z,1018.73
2018-09-23T02:36:45.258Z,1018.68
2018-09-23T02:37:45.291Z,1018.68
2018-09-23T02:38:45.293Z,1018.69
2018-09-23T02:39:45.476Z,1018.67
2018-09-23T02:40:45.239Z,1018.65
2018-09-23T02:41:45.290Z,1018.63
2018-09-23T02:42:45.429Z,1018.6
2018-09-23T02:43:45.284Z,1018.52
2018-09-23T02:44:45.303Z,1018.52
2018-09-23T02:45:45.320Z,1018.52
2018-09-23T02:46:45.315Z,1018.5
2018-09-23T02:47:45.404Z,1018.49
2018-09-23T02:48:45.230Z,1018.42
2018-09-23T02:49:45.274Z,1018.4
2018-09-23T02:50:45.391Z,1018.34
2018-09-23T02:51:45.250Z,1018.3
2018-09-23T02:52:45.271Z,1018.37
2018-09-23T02:53:45.357Z,1018.33
2018-09-23T02:54:45.340Z,1018.35
2018-09-23T02:55:45.236Z,1018.28
2018-09-23T02:56:45.285Z,1018.27
2018-09-23T02:57:45.258Z,1018.2
2018-09-23T02:58:45.402Z,1018.2
2018-09-23T02:59:45.436Z,1018.19
2018-09-23T03:00:45.313Z,1018.14
2018-09-23T03:01:45.229Z,1018.14
2018-09-23T03:02:45.483Z,1018.14
2018-09-23T03:03:45.254Z,1018.1
2018-09-23T03:04:45.621Z,1018.06
2018-09-23T03:05:45.612Z,1018.04
2018-09-23T03:06:45.222Z,1018.07
2018-09-23T03:07:45.842Z,1018.03
2018-09-23T03:08:45.322Z,1017.99
2018-09-23T03:09:45.241Z,1017.98
2018-09-23T03:10:45.254Z,1017.99
2018-09-23T03:11:45.238Z,1017.95
2018-09-23T03:12:45.375Z,1017.97
2018-09-23T03:13:45.355Z,1017.94
2018-09-23T03:14:45.209Z,1017.93
2018-09-23T03:15:45.215Z,1017.95
2018-09-23T03:16:45.198Z,1017.91
2018-09-23T03:17:45.236Z,1017.93
2018-09-23T03:18:45.228Z,1017.9
2018-09-23T03:19:45.205Z,1017.82
2018-09-23T03:20:45.223Z,1017.77
2018-09-23T03:21:45.237Z,1017.77
2018-09-23T03:22:45.232Z,1017.75
2018-09-23T03:23:45.263Z,1017.7
2018-09-23T03:24:45.247Z,1017.72
2018-09-23T03:25:45.247Z,1017.68
2018-09-23T03:26:45.260Z,1017.67
2018-09-23T03:27:45.238Z,1017.65
2018-09-23T03:28:45.211Z,1017.62
2018-09-23T03:29:45.215Z,1017.59
2018-09-23T03:30:45.232Z,1017.58
2018-09-23T03:31:45.205Z,1017.58
2018-09-23T03:32:45.196Z,1017.49
2018-09-23T03:33:45.176Z,1017.47
2018-09-23T03:34:45.209Z,1017.5
2018-09-23T03:35:45.231Z,1017.5
2018-09-23T03:36:45.197Z,1017.47
2018-09-23T03:37:45.348Z,1017.44
2018-09-23T03:38:45.186Z,1017.4
2018-09-23T03:39:45.394Z,1017.4
2018-09-23T03:40:45.213Z,1017.38
2018-09-23T03:41:45.223Z,1017.39
2018-09-23T03:42:45.574Z,1017.33
2018-09-23T03:43:45.418Z,1017.31
2018-09-23T03:44:45.189Z,1017.3
2018-09-23T03:45:45.251Z,1017.28
2018-09-23T03:46:45.196Z,1017.24
2018-09-23T03:47:45.265Z,1017.21
2018-09-23T03:48:45.311Z,1017.17
2018-09-23T03:49:45.184Z,1017.13
2018-09-23T03:50:45.329Z,1017.11
2018-09-23T03:51:45.181Z,1017.05
2018-09-23T03:52:45.242Z,1017.05
2018-09-23T03:53:46.537Z,1017
2018-09-23T03:54:45.213Z,1017
2018-09-23T03:55:45.190Z,1017
2018-09-23T03:56:45.195Z,1016.96
2018-09-23T03:57:45.183Z,1016.91
2018-09-23T03:58:45.279Z,1016.9
2018-09-23T03:59:45.205Z,1016.92
2018-09-23T04:00:45.209Z,1016.92
2018-09-23T04:01:45.161Z,1016.87
2018-09-23T04:02:45.153Z,1016.85
2018-09-23T04:03:45.211Z,1016.87
2018-09-23T04:04:45.163Z,1016.8
2018-09-23T04:05:45.269Z,1016.82
2018-09-23T04:06:45.319Z,1016.78
2018-09-23T04:07:45.239Z,1016.73
2018-09-23T04:08:45.632Z,1016.76
2018-09-23T04:09:45.158Z,1016.72
2018-09-23T04:10:45.163Z,1016.67
2018-09-23T04:11:45.351Z,1016.6
2018-09-23T04:12:45.326Z,1016.55
2018-09-23T04:13:45.362Z,1016.6
2018-09-23T04:14:45.144Z,1016.53
2018-09-23T04:15:45.158Z,1016.51
2018-09-23T04:16:45.143Z,1016.54
2018-09-23T04:17:45.149Z,1016.46
2018-09-23T04:18:45.315Z,1016.46
2018-09-23T04:19:45.140Z,1016.44
2018-09-23T04:20:45.173Z,1016.44
2018-09-23T04:21:45.111Z,1016.4
2018-09-23T04:22:45.223Z,1016.35
2018-09-23T04:23:45.244Z,1016.32
2018-09-23T04:24:45.204Z,1016.33
2018-09-23T04:25:45.855Z,1016.32
2018-09-23T04:26:45.258Z,1016.32
2018-09-23T04:27:45.252Z,1016.36
2018-09-23T04:28:45.180Z,1016.4
2018-09-23T04:29:45.212Z,1016.38
2018-09-23T04:30:45.108Z,1016.42
2018-09-23T04:31:45.363Z,1016.42
2018-09-23T04:32:45.327Z,1016.4
2018-09-23T04:33:45.179Z,1016.5
2018-09-23T04:34:45.431Z,1016.5
2018-09-23T04:35:45.199Z,1016.54
2018-09-23T04:36:45.147Z,1016.49
2018-09-23T04:37:45.126Z,1016.48
2018-09-23T04:38:45.288Z,1016.47
2018-09-23T04:39:45.136Z,1016.48
2018-09-23T04:40:45.111Z,1016.48
2018-09-23T04:41:45.394Z,1016.42
2018-09-23T04:42:45.116Z,1016.36
2018-09-23T04:43:45.090Z,1016.33
2018-09-23T04:44:45.215Z,1016.32
2018-09-23T04:45:45.118Z,1016.32
2018-09-23T04:46:45.145Z,1016.28
2018-09-23T04:47:45.089Z,1016.28
2018-09-23T04:48:45.080Z,1016.25
2018-09-23T04:49:45.107Z,1016.28
2018-09-23T04:50:45.108Z,1016.27
2018-09-23T04:51:45.085Z,1016.26
2018-09-23T04:52:45.142Z,1016.23
2018-09-23T04:53:45.203Z,1016.24
2018-09-23T04:54:45.114Z,1016.21
2018-09-23T04:55:45.118Z,1016.2
2018-09-23T04:56:45.072Z,1016.2
2018-09-23T04:57:45.126Z,1016.13
2018-09-23T04:58:45.078Z,1016.15
2018-09-23T04:59:45.103Z,1016.12
2018-09-23T05:00:45.733Z,1016.12
2018-09-23T05:01:45.269Z,1016.15
2018-09-23T05:02:45.143Z,1016.13
2018-09-23T05:03:45.101Z,1016.09
2018-09-23T05:04:45.133Z,1016.15
2018-09-23T05:05:45.200Z,1016.11
2018-09-23T05:06:45.301Z,1016.04
2018-09-23T05:07:45.089Z,1016.07
2018-09-23T05:08:48.854Z,1016.08
2018-09-23T05:09:45.067Z,1016.06
2018-09-23T05:10:45.294Z,1016
2018-09-23T05:11:45.902Z,1015.97
2018-09-23T05:12:45.162Z,1015.95
2018-09-23T05:13:45.100Z,1015.91
2018-09-23T05:14:45.095Z,1015.88
2018-09-23T05:15:45.083Z,1015.85
2018-09-23T05:16:45.063Z,1015.87
2018-09-23T05:17:45.068Z,1015.86
2018-09-23T05:18:45.654Z,1015.86
2018-09-23T05:19:45.414Z,1015.83
2018-09-23T05:20:45.078Z,1015.84
2018-09-23T05:21:45.029Z,1015.88
2018-09-23T05:22:45.175Z,1015.85
2018-09-23T05:23:45.139Z,1015.86
2018-09-23T05:24:45.072Z,1015.84
2018-09-23T05:25:45.088Z,1015.84
2018-09-23T05:26:45.194Z,1015.81
2018-09-23T05:27:45.065Z,1015.82
2018-09-23T05:28:45.199Z,1015.84
2018-09-23T05:29:45.016Z,1015.87
2018-09-23T05:30:45.010Z,1015.86
2018-09-23T05:31:45.197Z,1015.74
2018-09-23T05:32:45.102Z,1015.82
2018-09-23T05:33:45.029Z,1015.76
2018-09-23T05:34:45.217Z,1015.83
2018-09-23T05:35:45.170Z,1015.81
2018-09-23T05:36:45.070Z,1015.78
2018-09-23T05:37:45.030Z,1015.8
2018-09-23T05:38:45.040Z,1015.78
2018-09-23T05:39:45.079Z,1015.79
2018-09-23T05:40:49.280Z,1015.79
2018-09-23T05:41:45.052Z,1015.79
2018-09-23T05:42:45.078Z,1015.75
2018-09-23T05:43:45.030Z,1015.7
2018-09-23T05:44:45.172Z,1015.73
2018-09-23T05:45:45.066Z,1015.77
2018-09-23T05:46:45.124Z,1015.73
2018-09-23T05:47:45.050Z,1015.68
2018-09-23T05:48:45.131Z,1015.64
2018-09-23T05:49:45.027Z,1015.71
2018-09-23T05:50:44.985Z,1015.64
2018-09-23T05:51:45.618Z,1015.61
2018-09-23T05:52:45.148Z,1015.63
2018-09-23T05:53:45.050Z,1015.63
2018-09-23T05:54:45.047Z,1015.63
2018-09-23T05:55:45.197Z,1015.68
2018-09-23T05:56:45.059Z,1015.64
2018-09-23T05:57:45.028Z,1015.62
2018-09-23T05:58:45.106Z,1015.65
2018-09-23T05:59:44.988Z,1015.58
2018-09-23T06:00:45.017Z,1015.6
2018-09-23T06:01:45.283Z,1015.58
2018-09-23T06:02:45.045Z,1015.58
2018-09-23T06:03:45.057Z,1015.52
2018-09-23T06:04:44.970Z,1015.59
2018-09-23T06:05:45.077Z,1015.59
2018-09-23T06:06:44.986Z,1015.58
2018-09-23T06:07:45.093Z,1015.61
2018-09-23T06:08:45.090Z,1015.62
2018-09-23T06:09:45.033Z,1015.61
2018-09-23T06:10:45.017Z,1015.61
2018-09-23T06:11:44.971Z,1015.6
2018-09-23T06:12:45.047Z,1015.56
2018-09-23T06:13:44.970Z,1015.57
2018-09-23T06:14:44.998Z,1015.54
2018-09-23T06:15:45.025Z,1015.53
2018-09-23T06:16:44.973Z,1015.48
2018-09-23T06:17:45.010Z,1015.46
2018-09-23T06:18:44.990Z,1015.49
2018-09-23T06:19:45.003Z,1015.5
2018-09-23T06:20:45.043Z,1015.49
2018-09-23T06:21:44.982Z,1015.48
2018-09-23T06:22:44.977Z,1015.47
2018-09-23T06:23:45.111Z,1015.46
2018-09-23T06:24:44.987Z,1015.42
2018-09-23T06:25:45.072Z,1015.4
2018-09-23T06:26:45.128Z,1015.41
2018-09-23T06:27:44.986Z,1015.36
2018-09-23T06:28:45.054Z,1015.42
2018-09-23T06:29:44.958Z,1015.43
2018-09-23T06:30:45.003Z,1015.41
2018-09-23T06:31:44.993Z,1015.4
2018-09-23T06:32:45.048Z,1015.4
2018-09-23T06:33:45.076Z,1015.42
2018-09-23T06:34:45.211Z,1015.39
2018-09-23T06:35:45.244Z,1015.4
2018-09-23T06:36:45.090Z,1015.35
2018-09-23T06:37:45.018Z,1015.44
2018-09-23T06:38:45.600Z,1015.48
2018-09-23T06:39:44.912Z,1015.45
2018-09-23T06:40:45.383Z,1015.41
2018-09-23T06:41:45.028Z,1015.4
2018-09-23T06:42:44.939Z,1015.39
2018-09-23T06:43:47.186Z,1015.34
2018-09-23T06:44:45.015Z,1015.37
2018-09-23T06:45:45.540Z,1015.37
2018-09-23T06:46:44.935Z,1015.33
2018-09-23T06:47:45.107Z,1015.34
2018-09-23T06:48:45.061Z,1015.36
2018-09-23T06:49:44.961Z,1015.33
2018-09-23T06:50:44.937Z,1015.3
2018-09-23T06:51:45.052Z,1015.2
2018-09-23T06:52:45.010Z,1015.21
2018-09-23T06:53:45.088Z,1015.16
2018-09-23T06:54:45.037Z,1015.17
2018-09-23T06:55:45.690Z,1015.12
2018-09-23T06:56:45.096Z,1015.11
2018-09-23T06:57:44.916Z,1015.1
2018-09-23T06:58:44.972Z,1015.13
2018-09-23T06:59:44.909Z,1015.16
2018-09-23T07:00:45.089Z,1015.14
2018-09-23T07:01:45.019Z,1015.1
2018-09-23T07:02:45.055Z,1015.02
2018-09-23T07:03:45.055Z,1015.03
2018-09-23T07:04:45.086Z,1014.97
2018-09-23T07:05:45.051Z,1015.03
2018-09-23T07:06:44.900Z,1014.98
2018-09-23T07:07:45.094Z,1014.98
2018-09-23T07:08:45.193Z,1014.97
2018-09-23T07:09:45.198Z,1014.93
2018-09-23T07:10:45.090Z,1014.98
2018-09-23T07:11:44.915Z,1014.99
2018-09-23T07:12:45.131Z,1015.01
2018-09-23T07:13:45.055Z,1015.01
2018-09-23T07:14:45.336Z,1015.02
2018-09-23T07:15:44.918Z,1015.07
2018-09-23T07:16:45.063Z,1015.05
2018-09-23T07:17:45.103Z,1015.04
2018-09-23T07:18:44.918Z,1015.06
2018-09-23T07:19:45.070Z,1015.04
2018-09-23T07:20:44.993Z,1015.09
2018-09-23T07:21:44.944Z,1015.06
2018-09-23T07:22:44.914Z,1015.06
2018-09-23T07:23:45.149Z,1015.05
2018-09-23T07:24:44.906Z,1015
2018-09-23T07:25:45.007Z,1015.02
2018-09-23T07:26:44.872Z,1015
2018-09-23T07:27:45.258Z,1015.01
2018-09-23T07:28:44.960Z,1014.96
2018-09-23T07:29:44.901Z,1015
2018-09-23T07:30:44.977Z,1014.95
2018-09-23T07:31:44.973Z,1014.95
2018-09-23T07:32:44.928Z,1014.93
2018-09-23T07:33:44.923Z,1014.96
2018-09-23T07:34:44.853Z,1014.99
2018-09-23T07:35:44.980Z,1014.98
2018-09-23T07:36:45.138Z,1014.98
2018-09-23T07:37:44.938Z,1014.98
2018-09-23T07:38:45.011Z,1014.96
2018-09-23T07:39:45.006Z,1015
2018-09-23T07:40:44.872Z,1014.97
2018-09-23T07:41:44.837Z,1014.99
2018-09-23T07:42:44.989Z,1014.97
2018-09-23T07:43:44.934Z,1015.01
2018-09-23T07:44:45.063Z,1015.03
2018-09-23T07:45:44.948Z,1014.95
2018-09-23T07:46:44.961Z,1014.95
2018-09-23T07:47:45.130Z,1015.01
2018-09-23T07:48:44.968Z,1014.95
2018-09-23T07:49:45.068Z,1014.99
2018-09-23T07:50:45.321Z,1014.97
2018-09-23T07:51:45.011Z,1014.96
2018-09-23T07:52:44.963Z,1014.96
2018-09-23T07:53:44.998Z,1014.91
2018-09-23T07:54:45.379Z,1014.99
2018-09-23T07:55:45.257Z,1014.92
2018-09-23T07:56:45.015Z,1014.85
2018-09-23T07:57:45.082Z,1014.93
2018-09-23T07:58:46.053Z,1014.85
2018-09-23T07:59:44.902Z,1014.92
2018-09-23T08:00:44.975Z,1014.9
2018-09-23T08:01:46.047Z,1014.89
2018-09-23T08:02:45.028Z,1014.85
2018-09-23T08:03:45.463Z,1014.86
2018-09-23T08:04:44.868Z,1014.8
2018-09-23T08:05:44.841Z,1014.76
2018-09-23T08:06:46.042Z,1014.79
2018-09-23T08:07:45.005Z,1014.76
2018-09-23T08:08:44.965Z,1014.76
2018-09-23T08:09:44.857Z,1014.77
2018-09-23T08:10:45.078Z,1014.71
2018-09-23T08:11:45.499Z,1014.69
2018-09-23T08:12:45.562Z,1014.69
2018-09-23T08:13:45.449Z,1014.71
2018-09-23T08:14:46.152Z,1014.67
2018-09-23T08:15:44.925Z,1014.59
2018-09-23T08:16:45.006Z,1014.59
2018-09-23T08:17:44.824Z,1014.64
2018-09-23T08:18:45.170Z,1014.6
2018-09-23T08:19:45.791Z,1014.68
2018-09-23T08:20:44.950Z,1014.69
2018-09-23T08:21:44.970Z,1014.66
2018-09-23T08:22:44.927Z,1014.58
2018-09-23T08:23:45.062Z,1014.66
2018-09-23T08:24:44.806Z,1014.76
2018-09-23T08:25:45.216Z,1014.58
2018-09-23T08:26:44.801Z,1014.61
2018-09-23T08:27:44.866Z,1014.62
2018-09-23T08:28:44.799Z,1014.64
2018-09-23T08:29:44.776Z,1014.6
2018-09-23T08:30:44.786Z,1014.63
2018-09-23T08:31:45.446Z,1014.55
2018-09-23T08:32:45.229Z,1014.64
2018-09-23T08:33:51.844Z,1014.5
2018-09-23T08:34:45.064Z,1014.52
2018-09-23T08:35:44.813Z,1014.51
2018-09-23T08:36:44.976Z,1014.56
2018-09-23T08:37:44.980Z,1014.47
2018-09-23T08:38:44.787Z,1014.43
2018-09-23T08:39:45.142Z,1014.48
2018-09-23T08:40:44.842Z,1014.49
2018-09-23T08:41:44.815Z,1014.42
2018-09-23T08:42:44.881Z,1014.43
2018-09-23T08:43:45.086Z,1014.39
2018-09-23T08:44:44.879Z,1014.44
2018-09-23T08:45:44.944Z,1014.41
2018-09-23T08:46:44.759Z,1014.36
2018-09-23T08:47:44.832Z,1014.36
2018-09-23T08:48:44.728Z,1014.3
2018-09-23T08:49:44.776Z,1014.32
2018-09-23T08:50:44.789Z,1014.34
2018-09-23T08:51:44.853Z,1014.49
2018-09-23T08:52:44.754Z,1014.3
2018-09-23T08:53:44.796Z,1014.39
2018-09-23T08:54:44.794Z,1014.33
2018-09-23T08:55:44.764Z,1014.36
2018-09-23T08:56:44.830Z,1014.46
2018-09-23T08:57:44.968Z,1014.3
2018-09-23T08:58:44.924Z,1014.38
2018-09-23T08:59:44.749Z,1014.38
2018-09-23T09:00:44.801Z,1014.51
2018-09-23T09:01:44.759Z,1014.4
2018-09-23T09:02:44.784Z,1014.45
2018-09-23T09:03:45.012Z,1014.38
2018-09-23T09:04:44.780Z,1014.43
2018-09-23T09:05:44.795Z,1014.42
2018-09-23T09:06:44.805Z,1014.46
2018-09-23T09:07:44.781Z,1014.35
2018-09-23T09:08:44.814Z,1014.33
2018-09-23T09:09:44.762Z,1014.43
2018-09-23T09:10:45.034Z,1014.36
2018-09-23T09:11:45.017Z,1014.29
2018-09-23T09:12:44.741Z,1014.3
2018-09-23T09:13:44.771Z,1014.32
2018-09-23T09:14:44.744Z,1014.3
2018-09-23T09:15:50.284Z,1014.28
2018-09-23T09:16:45.070Z,1014.37
2018-09-23T09:17:44.950Z,1014.33
2018-09-23T09:18:45.218Z,1014.32
2018-09-23T09:19:44.744Z,1014.27
2018-09-23T09:20:46.152Z,1014.25
2018-09-23T09:21:45.007Z,1014.33
2018-09-23T09:22:44.749Z,1014.32
2018-09-23T09:23:44.965Z,1014.31
2018-09-23T09:24:44.758Z,1014.27
2018-09-23T09:25:44.769Z,1014.27
2018-09-23T09:26:45.270Z,1014.26
2018-09-23T09:27:44.985Z,1014.29
2018-09-23T09:28:44.744Z,1014.22
2018-09-23T09:29:45.096Z,1014.24
2018-09-23T09:30:44.896Z,1014.31
2018-09-23T09:31:44.914Z,1014.26
2018-09-23T09:32:44.908Z,1014.25
2018-09-23T09:33:45.123Z,1014.27
2018-09-23T09:34:44.880Z,1014.23
2018-09-23T09:35:45.049Z,1014.19
2018-09-23T09:36:45.034Z,1014.15
2018-09-23T09:37:44.743Z,1014.13
2018-09-23T09:38:44.909Z,1014.11
2018-09-23T09:39:44.863Z,1014.12
2018-09-23T09:40:44.962Z,1014.13
2018-09-23T09:41:44.862Z,1014.12
2018-09-23T09:42:44.803Z,1014.04
2018-09-23T09:43:45.590Z,1014.07
2018-09-23T09:44:45.206Z,1013.95
2018-09-23T09:45:45.103Z,1013.98
2018-09-23T09:46:44.910Z,1013.97
2018-09-23T09:47:44.907Z,1014.07
2018-09-23T09:48:45.115Z,1013.95
2018-09-23T09:49:44.929Z,1013.95
2018-09-23T09:50:45.447Z,1013.9
2018-09-23T09:51:45.240Z,1013.94
2018-09-23T09:52:44.958Z,1013.89
2018-09-23T09:53:44.743Z,1013.86
2018-09-23T09:54:44.854Z,1013.91
2018-09-23T09:55:45.079Z,1013.91
2018-09-23T09:56:44.866Z,1013.86
2018-09-23T09:57:44.987Z,1013.83
2018-09-23T09:58:45.384Z,1013.8
2018-09-23T09:59:44.929Z,1013.76
2018-09-23T10:00:45.158Z,1013.82
2018-09-23T10:01:44.755Z,1013.75
2018-09-23T10:02:44.825Z,1013.77
2018-09-23T10:03:44.784Z,1013.77
2018-09-23T10:04:45.030Z,1013.75
2018-09-23T10:05:44.838Z,1013.79
2018-09-23T10:06:44.826Z,1013.69
2018-09-23T10:07:44.718Z,1013.65
2018-09-23T10:08:44.959Z,1013.63
2018-09-23T10:09:45.471Z,1013.67
2018-09-23T10:10:44.737Z,1013.63
2018-09-23T10:11:44.965Z,1013.58
2018-09-23T10:12:44.743Z,1013.65
2018-09-23T10:13:44.709Z,1013.48
2018-09-23T10:14:44.884Z,1013.61
2018-09-23T10:15:44.671Z,1013.58
2018-09-23T10:16:44.645Z,1013.43
2018-09-23T10:17:44.916Z,1013.57
2018-09-23T10:18:44.638Z,1013.51
2018-09-23T10:19:44.790Z,1013.46
2018-09-23T10:20:44.931Z,1013.38
2018-09-23T10:21:44.698Z,1013.36
2018-09-23T10:22:45.406Z,1013.43
2018-09-23T10:23:46.326Z,1013.48
2018-09-23T10:24:44.666Z,1013.37
2018-09-23T10:25:44.723Z,1013.41
2018-09-23T10:26:44.652Z,1013.31
2018-09-23T10:27:44.709Z,1013.36
2018-09-23T10:28:44.883Z,1013.29
2018-09-23T10:29:45.138Z,1013.28
2018-09-23T10:30:44.632Z,1013.3
2018-09-23T10:31:44.887Z,1013.29
2018-09-23T10:32:44.814Z,1013.22
2018-09-23T10:33:44.700Z,1013.21
2018-09-23T10:34:44.787Z,1013.27
2018-09-23T10:35:45.862Z,1013.08
2018-09-23T10:36:44.821Z,1013.15
2018-09-23T10:37:44.768Z,1013.04
2018-09-23T10:38:44.766Z,1013.08
2018-09-23T10:39:44.650Z,1012.92
2018-09-23T10:40:44.723Z,1012.97
2018-09-23T10:41:45.801Z,1012.95
2018-09-23T10:42:44.764Z,1013.01
2018-09-23T10:43:44.643Z,1012.91
2018-09-23T10:44:44.679Z,1012.83
2018-09-23T10:45:45.208Z,1013
2018-09-23T10:46:44.723Z,1012.86
2018-09-23T10:47:44.783Z,1012.94
2018-09-23T10:48:44.717Z,1012.85
2018-09-23T10:49:44.731Z,1013.02
2018-09-23T10:50:44.842Z,1012.95
2018-09-23T10:51:44.720Z,1012.86
2018-09-23T10:52:44.759Z,1012.81
2018-09-23T10:53:44.585Z,1012.74
2018-09-23T10:54:44.670Z,1012.68
2018-09-23T10:55:44.830Z,1012.77
2018-09-23T10:56:44.622Z,1012.69
2018-09-23T10:57:44.714Z,1012.71
2018-09-23T10:58:44.707Z,1012.68
2018-09-23T10:59:45.829Z,1012.62
2018-09-23T11:00:44.671Z,1012.68
2018-09-23T11:01:45.128Z,1012.73
2018-09-23T11:02:48.219Z,1012.64
2018-09-23T11:03:44.703Z,1012.68
2018-09-23T11:04:44.617Z,1012.72
2018-09-23T11:05:44.622Z,1012.7
2018-09-23T11:06:44.764Z,1012.72
2018-09-23T11:07:44.605Z,1012.67
2018-09-23T11:08:44.752Z,1012.75
2018-09-23T11:09:44.974Z,1012.69
2018-09-23T11:10:44.586Z,1012.62
2018-09-23T11:11:45.208Z,1012.57
2018-09-23T11:12:44.627Z,1012.64
2018-09-23T11:13:44.609Z,1012.58
2018-09-23T11:14:44.695Z,1012.64
2018-09-23T11:15:44.725Z,1012.65
2018-09-23T11:16:44.867Z,1012.62
2018-09-23T11:17:44.617Z,1012.66
2018-09-23T11:18:44.747Z,1012.73
2018-09-23T11:19:44.643Z,1012.63
2018-09-23T11:20:44.605Z,1012.62
2018-09-23T11:21:44.866Z,1012.52
2018-09-23T11:22:44.749Z,1012.53
2018-09-23T11:23:44.621Z,1012.53
2018-09-23T11:24:44.946Z,1012.43
2018-09-23T11:25:44.593Z,1012.38
2018-09-23T11:26:44.614Z,1012.28
2018-09-23T11:27:44.816Z,1012.37
2018-09-23T11:28:44.620Z,1012.24
2018-09-23T11:29:44.623Z,1012.27
2018-09-23T11:30:44.869Z,1012.28
2018-09-23T11:31:44.620Z,1012.23
2018-09-23T11:32:44.582Z,1012.29
2018-09-23T11:33:44.751Z,1012.23
2018-09-23T11:34:44.935Z,1012.27
2018-09-23T11:35:44.570Z,1012.09
2018-09-23T11:36:44.737Z,1012.19
2018-09-23T11:37:44.580Z,1012
2018-09-23T11:38:44.590Z,1012.01
2018-09-23T11:39:46.116Z,1011.99
2018-09-23T11:40:44.562Z,1011.68
2018-09-23T11:41:44.561Z,1011.8
2018-09-23T11:42:44.647Z,1011.81
2018-09-23T11:43:44.655Z,1011.95
2018-09-23T11:44:44.827Z,1011.8
2018-09-23T11:45:44.638Z,1011.66
2018-09-23T11:46:44.582Z,1011.8
2018-09-23T11:47:44.741Z,1011.72
2018-09-23T11:48:44.647Z,1011.65
2018-09-23T11:49:44.857Z,1011.62
2018-09-23T11:50:44.753Z,1011.59
2018-09-23T11:51:44.736Z,1011.53
2018-09-23T11:52:44.570Z,1011.58
2018-09-23T11:53:44.616Z,1011.61
2018-09-23T11:54:44.724Z,1011.45
2018-09-23T11:55:44.689Z,1011.45
2018-09-23T11:56:44.911Z,1011.46
2018-09-23T11:57:44.649Z,1011.49
2018-09-23T11:58:44.813Z,1011.36
2018-09-23T11:59:44.851Z,1011.34
2018-09-23T12:00:44.760Z,1011.32
2018-09-23T12:01:44.668Z,1011.14
2018-09-23T12:02:44.851Z,1011.24
2018-09-23T12:03:44.582Z,1011.22
2018-09-23T12:04:44.557Z,1011.12
2018-09-23T12:05:44.737Z,1011.11
2018-09-23T12:06:44.765Z,1011.27
2018-09-23T12:07:44.735Z,1011.18
2018-09-23T12:08:44.633Z,1011.1
2018-09-23T12:09:44.716Z,1011.01